sensor_id;sensor_type;location;lat;lon;timestamp;P1;durP1;ratioP1;P2;durP2;ratioP2
76051;SDS011;64751;48.708;9.710;2023-02-12T00:00:37;5.10;;;4.60;;
76051;SDS011;64751;48.708;9.710;2023-02-12T00:03:05;4.85;;;4.30;;
76051;SDS011;64751;48.708;9.710;2023-02-12T00:05:33;5.03;;;4.55;;
76051;SDS011;64751;48.708;9.710;2023-02-12T00:08:03;5.03;;;4.63;;
76051;SDS011;64751;48.708;9.710;2023-02-12T00:10:33;4.40;;;4.00;;
76051;SDS011;64751;48.708;9.710;2023-02-12T00:13:01;4.90;;;4.50;;
76051;SDS011;64751;48.708;9.710;2023-02-12T00:15:28;5.25;;;4.32;;
76051;SDS011;64751;48.708;9.710;2023-02-12T00:17:56;4.82;;;4.13;;
76051;SDS011;64751;48.708;9.710;2023-02-12T00:20:24;4.70;;;4.30;;
76051;SDS011;64751;48.708;9.710;2023-02-12T00:22:52;4.43;;;4.03;;
76051;SDS011;64751;48.708;9.710;2023-02-12T00:25:19;4.72;;;4.32;;
76051;SDS011;64751;48.708;9.710;2023-02-12T00:27:49;4.35;;;3.95;;
76051;SDS011;64751;48.708;9.710;2023-02-12T00:30:17;4.55;;;4.15;;
76051;SDS011;64751;48.708;9.710;2023-02-12T00:32:45;4.57;;;4.18;;
76051;SDS011;64751;48.708;9.710;2023-02-12T00:35:13;4.30;;;3.90;;
76051;SDS011;64751;48.708;9.710;2023-02-12T00:37:41;5.53;;;5.03;;
76051;SDS011;64751;48.708;9.710;2023-02-12T00:40:09;5.35;;;4.85;;
76051;SDS011;64751;48.708;9.710;2023-02-12T00:42:38;5.05;;;4.55;;
76051;SDS011;64751;48.708;9.710;2023-02-12T00:45:08;5.47;;;4.97;;
76051;SDS011;64751;48.708;9.710;2023-02-12T00:47:36;5.40;;;4.90;;
76051;SDS011;64751;48.708;9.710;2023-02-12T00:50:04;5.43;;;4.93;;
76051;SDS011;64751;48.708;9.710;2023-02-12T00:52:33;6.05;;;5.45;;
76051;SDS011;64751;48.708;9.710;2023-02-12T00:55:00;6.22;;;5.63;;
76051;SDS011;64751;48.708;9.710;2023-02-12T00:57:28;5.95;;;5.35;;
76051;SDS011;64751;48.708;9.710;2023-02-12T00:59:58;5.57;;;5.07;;
76051;SDS011;64751;48.708;9.710;2023-02-12T01:02:27;5.60;;;5.10;;
76051;SDS011;64751;48.708;9.710;2023-02-12T01:04:55;5.38;;;4.88;;
76051;SDS011;64751;48.708;9.710;2023-02-12T01:07:23;5.30;;;4.80;;
76051;SDS011;64751;48.708;9.710;2023-02-12T01:09:51;6.28;;;5.68;;
76051;SDS011;64751;48.708;9.710;2023-02-12T01:12:18;5.38;;;4.88;;
76051;SDS011;64751;48.708;9.710;2023-02-12T01:14:46;5.68;;;4.97;;
76051;SDS011;64751;48.708;9.710;2023-02-12T01:17:14;6.45;;;5.85;;
76051;SDS011;64751;48.708;9.710;2023-02-12T01:19:45;5.63;;;5.05;;
76051;SDS011;64751;48.708;9.710;2023-02-12T01:22:13;5.47;;;4.97;;
76051;SDS011;64751;48.708;9.710;2023-02-12T01:24:42;5.07;;;4.57;;
76051;SDS011;64751;48.708;9.710;2023-02-12T01:27:10;5.80;;;5.30;;
76051;SDS011;64751;48.708;9.710;2023-02-12T01:29:38;5.53;;;4.85;;
76051;SDS011;64751;48.708;9.710;2023-02-12T01:32:09;5.72;;;5.20;;
76051;SDS011;64751;48.708;9.710;2023-02-12T01:34:37;5.60;;;5.10;;
76051;SDS011;64751;48.708;9.710;2023-02-12T01:37:06;5.13;;;4.63;;
76051;SDS011;64751;48.708;9.710;2023-02-12T01:39:34;5.88;;;5.30;;
76051;SDS011;64751;48.708;9.710;2023-02-12T01:42:02;5.75;;;5.25;;
76051;SDS011;64751;48.708;9.710;2023-02-12T01:44:31;5.65;;;5.15;;
76051;SDS011;64751;48.708;9.710;2023-02-12T01:47:02;6.15;;;5.65;;
76051;SDS011;64751;48.708;9.710;2023-02-12T01:49:32;5.97;;;5.38;;
76051;SDS011;64751;48.708;9.710;2023-02-12T01:52:03;5.72;;;5.22;;
76051;SDS011;64751;48.708;9.710;2023-02-12T01:54:36;5.93;;;5.43;;
76051;SDS011;64751;48.708;9.710;2023-02-12T01:57:05;5.22;;;4.72;;
76051;SDS011;64751;48.708;9.710;2023-02-12T01:59:38;5.60;;;5.00;;
76051;SDS011;64751;48.708;9.710;2023-02-12T02:02:09;6.88;;;6.28;;
76051;SDS011;64751;48.708;9.710;2023-02-12T02:04:39;5.97;;;5.47;;
76051;SDS011;64751;48.708;9.710;2023-02-12T02:07:12;6.20;;;5.60;;
76051;SDS011;64751;48.708;9.710;2023-02-12T02:09:40;5.88;;;5.38;;
76051;SDS011;64751;48.708;9.710;2023-02-12T02:12:08;6.75;;;6.03;;
76051;SDS011;64751;48.708;9.710;2023-02-12T02:14:58;6.45;;;5.60;;
76051;SDS011;64751;48.708;9.710;2023-02-12T02:17:35;5.93;;;5.35;;
76051;SDS011;64751;48.708;9.710;2023-02-12T02:23:39;5.60;;;5.03;;
76051;SDS011;64751;48.708;9.710;2023-02-12T02:29:19;5.63;;;5.13;;
76051;SDS011;64751;48.708;9.710;2023-02-12T02:32:11;6.15;;;5.55;;
76051;SDS011;64751;48.708;9.710;2023-02-12T02:34:43;6.03;;;5.43;;
76051;SDS011;64751;48.708;9.710;2023-02-12T02:37:16;6.03;;;5.53;;
76051;SDS011;64751;48.708;9.710;2023-02-12T02:39:49;5.28;;;4.78;;
76051;SDS011;64751;48.708;9.710;2023-02-12T02:42:22;5.38;;;4.88;;
76051;SDS011;64751;48.708;9.710;2023-02-12T02:44:56;5.38;;;4.88;;
76051;SDS011;64751;48.708;9.710;2023-02-12T02:47:31;6.07;;;5.47;;
76051;SDS011;64751;48.708;9.710;2023-02-12T02:50:05;5.22;;;4.72;;
76051;SDS011;64751;48.708;9.710;2023-02-12T02:52:38;5.47;;;4.97;;
76051;SDS011;64751;48.708;9.710;2023-02-12T02:55:10;5.65;;;4.65;;
76051;SDS011;64751;48.708;9.710;2023-02-12T02:57:46;4.90;;;4.40;;
76051;SDS011;64751;48.708;9.710;2023-02-12T03:00:39;5.30;;;4.80;;
76051;SDS011;64751;48.708;9.710;2023-02-12T03:09:58;5.25;;;4.75;;
76051;SDS011;64751;48.708;9.710;2023-02-12T03:12:49;5.72;;;5.10;;
76051;SDS011;64751;48.708;9.710;2023-02-12T03:16:02;6.10;;;5.53;;
76051;SDS011;64751;48.708;9.710;2023-02-12T03:19:18;6.20;;;5.40;;
76051;SDS011;64751;48.708;9.710;2023-02-12T03:22:25;6.07;;;5.22;;
76051;SDS011;64751;48.708;9.710;2023-02-12T03:25:39;5.50;;;4.88;;
76051;SDS011;64751;48.708;9.710;2023-02-12T03:28:44;5.20;;;4.70;;
76051;SDS011;64751;48.708;9.710;2023-02-12T03:31:17;5.57;;;5.07;;
76051;SDS011;64751;48.708;9.710;2023-02-12T03:34:23;6.70;;;6.00;;
76051;SDS011;64751;48.708;9.710;2023-02-12T03:37:49;6.00;;;5.40;;
76051;SDS011;64751;48.708;9.710;2023-02-12T03:40:54;6.13;;;5.53;;
76051;SDS011;64751;48.708;9.710;2023-02-12T03:43:51;7.22;;;6.53;;
76051;SDS011;64751;48.708;9.710;2023-02-12T03:47:22;5.60;;;5.07;;
76051;SDS011;64751;48.708;9.710;2023-02-12T03:50:55;6.00;;;5.50;;
76051;SDS011;64751;48.708;9.710;2023-02-12T03:53:52;5.85;;;5.25;;
76051;SDS011;64751;48.708;9.710;2023-02-12T03:56:49;5.57;;;5.07;;
76051;SDS011;64751;48.708;9.710;2023-02-12T04:00:07;6.03;;;5.43;;
76051;SDS011;64751;48.708;9.710;2023-02-12T04:02:58;6.00;;;5.45;;
76051;SDS011;64751;48.708;9.710;2023-02-12T04:06:23;6.10;;;4.90;;
76051;SDS011;64751;48.708;9.710;2023-02-12T04:09:20;5.93;;;4.97;;
76051;SDS011;64751;48.708;9.710;2023-02-12T04:13:00;5.75;;;5.10;;
76051;SDS011;64751;48.708;9.710;2023-02-12T04:18:50;5.47;;;4.97;;
76051;SDS011;64751;48.708;9.710;2023-02-12T04:21:31;6.25;;;5.72;;
76051;SDS011;64751;48.708;9.710;2023-02-12T04:24:43;5.93;;;5.43;;
76051;SDS011;64751;48.708;9.710;2023-02-12T04:27:46;5.93;;;5.35;;
76051;SDS011;64751;48.708;9.710;2023-02-12T04:30:40;5.80;;;5.22;;
76051;SDS011;64751;48.708;9.710;2023-02-12T04:33:52;6.25;;;5.65;;
76051;SDS011;64751;48.708;9.710;2023-02-12T04:37:21;5.88;;;5.28;;
76051;SDS011;64751;48.708;9.710;2023-02-12T04:40:29;5.70;;;4.93;;
76051;SDS011;64751;48.708;9.710;2023-02-12T04:43:24;5.65;;;5.10;;
76051;SDS011;64751;48.708;9.710;2023-02-12T04:46:22;6.40;;;5.80;;
76051;SDS011;64751;48.708;9.710;2023-02-12T04:49:28;6.50;;;5.80;;
76051;SDS011;64751;48.708;9.710;2023-02-12T04:52:44;5.75;;;5.15;;
76051;SDS011;64751;48.708;9.710;2023-02-12T04:58:59;5.53;;;4.95;;
76051;SDS011;64751;48.708;9.710;2023-02-12T05:01:28;6.40;;;5.80;;
76051;SDS011;64751;48.708;9.710;2023-02-12T05:04:30;5.82;;;5.15;;
76051;SDS011;64751;48.708;9.710;2023-02-12T05:11:53;5.18;;;4.60;;
76051;SDS011;64751;48.708;9.710;2023-02-12T05:14:58;6.25;;;5.65;;
76051;SDS011;64751;48.708;9.710;2023-02-12T05:18:14;5.82;;;5.22;;
76051;SDS011;64751;48.708;9.710;2023-02-12T05:24:36;6.22;;;5.63;;
76051;SDS011;64751;48.708;9.710;2023-02-12T05:27:39;5.03;;;4.60;;
76051;SDS011;64751;48.708;9.710;2023-02-12T05:30:53;5.82;;;5.22;;
76051;SDS011;64751;48.708;9.710;2023-02-12T05:33:51;5.85;;;4.85;;
76051;SDS011;64751;48.708;9.710;2023-02-12T05:37:01;5.38;;;4.88;;
76051;SDS011;64751;48.708;9.710;2023-02-12T05:40:08;5.40;;;4.90;;
76051;SDS011;64751;48.708;9.710;2023-02-12T05:46:35;5.40;;;4.90;;
76051;SDS011;64751;48.708;9.710;2023-02-12T05:49:45;5.18;;;4.68;;
76051;SDS011;64751;48.708;9.710;2023-02-12T05:52:27;5.80;;;5.30;;
76051;SDS011;64751;48.708;9.710;2023-02-12T05:55:51;5.63;;;5.13;;
76051;SDS011;64751;48.708;9.710;2023-02-12T06:01:58;5.85;;;4.78;;
76051;SDS011;64751;48.708;9.710;2023-02-12T06:04:55;5.35;;;4.85;;
76051;SDS011;64751;48.708;9.710;2023-02-12T06:07:58;5.72;;;5.22;;
76051;SDS011;64751;48.708;9.710;2023-02-12T06:11:08;5.97;;;5.38;;
76051;SDS011;64751;48.708;9.710;2023-02-12T06:14:25;6.18;;;5.60;;
76051;SDS011;64751;48.708;9.710;2023-02-12T06:17:19;5.50;;;5.00;;
76051;SDS011;64751;48.708;9.710;2023-02-12T06:20:15;6.13;;;5.55;;
76051;SDS011;64751;48.708;9.710;2023-02-12T06:22:54;5.63;;;5.05;;
76051;SDS011;64751;48.708;9.710;2023-02-12T06:25:34;6.03;;;5.45;;
76051;SDS011;64751;48.708;9.710;2023-02-12T06:28:50;5.47;;;4.93;;
76051;SDS011;64751;48.708;9.710;2023-02-12T06:31:59;6.30;;;5.43;;
76051;SDS011;64751;48.708;9.710;2023-02-12T06:34:45;6.53;;;5.93;;
76051;SDS011;64751;48.708;9.710;2023-02-12T06:37:21;5.70;;;5.20;;
76051;SDS011;64751;48.708;9.710;2023-02-12T06:40:01;6.25;;;5.65;;
76051;SDS011;64751;48.708;9.710;2023-02-12T06:46:20;6.25;;;5.57;;
76051;SDS011;64751;48.708;9.710;2023-02-12T06:48:51;6.75;;;6.10;;
76051;SDS011;64751;48.708;9.710;2023-02-12T06:51:42;5.97;;;5.40;;
76051;SDS011;64751;48.708;9.710;2023-02-12T06:54:18;6.07;;;5.50;;
76051;SDS011;64751;48.708;9.710;2023-02-12T06:56:46;6.30;;;5.63;;
76051;SDS011;64751;48.708;9.710;2023-02-12T06:59:14;6.45;;;5.78;;
76051;SDS011;64751;48.708;9.710;2023-02-12T07:01:44;5.57;;;5.00;;
76051;SDS011;64751;48.708;9.710;2023-02-12T07:04:12;6.45;;;5.85;;
76051;SDS011;64751;48.708;9.710;2023-02-12T07:06:39;6.28;;;5.68;;
76051;SDS011;64751;48.708;9.710;2023-02-12T07:09:07;6.40;;;5.47;;
76051;SDS011;64751;48.708;9.710;2023-02-12T07:11:35;5.97;;;5.38;;
76051;SDS011;64751;48.708;9.710;2023-02-12T07:14:03;6.32;;;5.72;;
76051;SDS011;64751;48.708;9.710;2023-02-12T07:16:37;6.38;;;5.78;;
76051;SDS011;64751;48.708;9.710;2023-02-12T07:19:05;5.65;;;5.15;;
76051;SDS011;64751;48.708;9.710;2023-02-12T07:21:33;6.78;;;6.18;;
76051;SDS011;64751;48.708;9.710;2023-02-12T07:24:00;7.03;;;6.32;;
76051;SDS011;64751;48.708;9.710;2023-02-12T07:26:28;7.15;;;6.50;;
76051;SDS011;64751;48.708;9.710;2023-02-12T07:28:56;7.07;;;6.38;;
76051;SDS011;64751;48.708;9.710;2023-02-12T07:31:24;6.90;;;6.13;;
76051;SDS011;64751;48.708;9.710;2023-02-12T07:33:52;7.18;;;6.47;;
76051;SDS011;64751;48.708;9.710;2023-02-12T07:36:21;6.88;;;6.20;;
76051;SDS011;64751;48.708;9.710;2023-02-12T07:38:50;6.65;;;6.05;;
76051;SDS011;64751;48.708;9.710;2023-02-12T07:41:18;7.97;;;6.88;;
76051;SDS011;64751;48.708;9.710;2023-02-12T07:43:47;8.23;;;7.43;;
76051;SDS011;64751;48.708;9.710;2023-02-12T07:46:20;8.13;;;7.32;;
76051;SDS011;64751;48.708;9.710;2023-02-12T07:48:51;7.95;;;7.18;;
76051;SDS011;64751;48.708;9.710;2023-02-12T07:51:19;8.07;;;7.28;;
76051;SDS011;64751;48.708;9.710;2023-02-12T07:53:47;8.15;;;7.45;;
76051;SDS011;64751;48.708;9.710;2023-02-12T07:56:17;8.25;;;7.45;;
76051;SDS011;64751;48.708;9.710;2023-02-12T07:58:46;8.40;;;7.60;;
76051;SDS011;64751;48.708;9.710;2023-02-12T08:01:17;8.18;;;7.47;;
76051;SDS011;64751;48.708;9.710;2023-02-12T08:03:46;7.38;;;6.65;;
76051;SDS011;64751;48.708;9.710;2023-02-12T08:06:16;8.63;;;7.82;;
76051;SDS011;64751;48.708;9.710;2023-02-12T08:08:49;8.93;;;8.02;;
76051;SDS011;64751;48.708;9.710;2023-02-12T08:11:17;7.38;;;6.68;;
76051;SDS011;64751;48.708;9.710;2023-02-12T08:13:44;8.82;;;8.02;;
76051;SDS011;64751;48.708;9.710;2023-02-12T08:16:13;8.95;;;8.15;;
76051;SDS011;64751;48.708;9.710;2023-02-12T08:18:43;9.43;;;8.50;;
76051;SDS011;64751;48.708;9.710;2023-02-12T08:21:11;9.32;;;8.43;;
76051;SDS011;64751;48.708;9.710;2023-02-12T08:23:40;10.20;;;8.88;;
76051;SDS011;64751;48.708;9.710;2023-02-12T08:26:09;9.75;;;8.85;;
76051;SDS011;64751;48.708;9.710;2023-02-12T08:28:40;10.45;;;9.38;;
76051;SDS011;64751;48.708;9.710;2023-02-12T08:31:10;10.35;;;9.30;;
76051;SDS011;64751;48.708;9.710;2023-02-12T08:33:39;9.70;;;8.77;;
76051;SDS011;64751;48.708;9.710;2023-02-12T08:36:07;9.70;;;8.75;;
76051;SDS011;64751;48.708;9.710;2023-02-12T08:38:36;9.02;;;8.13;;
76051;SDS011;64751;48.708;9.710;2023-02-12T08:41:06;9.25;;;8.35;;
76051;SDS011;64751;48.708;9.710;2023-02-12T08:43:36;9.10;;;8.20;;
76051;SDS011;64751;48.708;9.710;2023-02-12T08:46:04;9.23;;;8.35;;
76051;SDS011;64751;48.708;9.710;2023-02-12T08:48:33;9.05;;;8.15;;
76051;SDS011;64751;48.708;9.710;2023-02-12T08:51:05;8.65;;;7.75;;
76051;SDS011;64751;48.708;9.710;2023-02-12T08:53:34;9.25;;;7.72;;
76051;SDS011;64751;48.708;9.710;2023-02-12T08:56:02;8.63;;;7.82;;
76051;SDS011;64751;48.708;9.710;2023-02-12T09:07:55;4.72;;;4.03;;
76051;SDS011;64751;48.708;9.710;2023-02-12T09:10:23;4.90;;;4.05;;
76051;SDS011;64751;48.708;9.710;2023-02-12T09:12:50;5.18;;;4.35;;
76051;SDS011;64751;48.708;9.710;2023-02-12T09:15:18;4.43;;;3.70;;
76051;SDS011;64751;48.708;9.710;2023-02-12T09:17:46;3.70;;;3.28;;
76051;SDS011;64751;48.708;9.710;2023-02-12T09:20:14;4.45;;;3.60;;
76051;SDS011;64751;48.708;9.710;2023-02-12T09:22:42;4.82;;;3.97;;
76051;SDS011;64751;48.708;9.710;2023-02-12T09:25:11;3.95;;;3.08;;
76051;SDS011;64751;48.708;9.710;2023-02-12T09:27:39;3.95;;;3.50;;
76051;SDS011;64751;48.708;9.710;2023-02-12T09:30:07;4.20;;;3.70;;
76051;SDS011;64751;48.708;9.710;2023-02-12T09:32:36;3.80;;;3.40;;
76051;SDS011;64751;48.708;9.710;2023-02-12T09:35:03;4.20;;;3.47;;
76051;SDS011;64751;48.708;9.710;2023-02-12T09:37:31;4.30;;;3.50;;
76051;SDS011;64751;48.708;9.710;2023-02-12T09:39:59;3.60;;;3.00;;
76051;SDS011;64751;48.708;9.710;2023-02-12T09:42:35;4.70;;;4.18;;
76051;SDS011;64751;48.708;9.710;2023-02-12T09:45:18;4.47;;;4.03;;
76051;SDS011;64751;48.708;9.710;2023-02-12T09:47:50;4.05;;;3.65;;
76051;SDS011;64751;48.708;9.710;2023-02-12T09:50:28;3.00;;;2.65;;
76051;SDS011;64751;48.708;9.710;2023-02-12T09:52:59;3.10;;;2.47;;
76051;SDS011;64751;48.708;9.710;2023-02-12T09:55:28;3.38;;;2.78;;
76051;SDS011;64751;48.708;9.710;2023-02-12T09:57:59;2.47;;;2.00;;
76051;SDS011;64751;48.708;9.710;2023-02-12T10:00:29;2.33;;;1.70;;
76051;SDS011;64751;48.708;9.710;2023-02-12T10:02:59;2.20;;;1.50;;
76051;SDS011;64751;48.708;9.710;2023-02-12T10:05:30;1.90;;;1.50;;
76051;SDS011;64751;48.708;9.710;2023-02-12T10:08:12;1.98;;;1.40;;
76051;SDS011;64751;48.708;9.710;2023-02-12T10:10:56;2.17;;;1.77;;
76051;SDS011;64751;48.708;9.710;2023-02-12T10:13:40;2.30;;;1.58;;
76051;SDS011;64751;48.708;9.710;2023-02-12T10:16:16;2.13;;;1.52;;
76051;SDS011;64751;48.708;9.710;2023-02-12T10:18:57;2.13;;;1.50;;
76051;SDS011;64751;48.708;9.710;2023-02-12T10:21:41;2.83;;;2.28;;
76051;SDS011;64751;48.708;9.710;2023-02-12T10:24:22;2.30;;;1.70;;
76051;SDS011;64751;48.708;9.710;2023-02-12T10:27:01;2.65;;;1.90;;
76051;SDS011;64751;48.708;9.710;2023-02-12T10:29:33;2.40;;;1.98;;
76051;SDS011;64751;48.708;9.710;2023-02-12T10:32:11;2.53;;;1.92;;
76051;SDS011;64751;48.708;9.710;2023-02-12T10:34:43;2.15;;;1.73;;
76051;SDS011;64751;48.708;9.710;2023-02-12T10:37:13;2.80;;;2.08;;
76051;SDS011;64751;48.708;9.710;2023-02-12T10:39:49;2.67;;;1.98;;
76051;SDS011;64751;48.708;9.710;2023-02-12T10:42:23;2.50;;;1.80;;
76051;SDS011;64751;48.708;9.710;2023-02-12T10:44:58;2.65;;;2.15;;
76051;SDS011;64751;48.708;9.710;2023-02-12T10:47:26;2.78;;;2.05;;
76051;SDS011;64751;48.708;9.710;2023-02-12T10:49:55;2.20;;;1.70;;
76051;SDS011;64751;48.708;9.710;2023-02-12T10:52:29;2.40;;;1.83;;
76051;SDS011;64751;48.708;9.710;2023-02-12T10:55:04;2.20;;;1.77;;
76051;SDS011;64751;48.708;9.710;2023-02-12T10:57:50;2.20;;;1.75;;
76051;SDS011;64751;48.708;9.710;2023-02-12T11:00:24;2.00;;;1.45;;
76051;SDS011;64751;48.708;9.710;2023-02-12T11:02:59;1.27;;;0.98;;
76051;SDS011;64751;48.708;9.710;2023-02-12T11:05:32;2.33;;;1.52;;
76051;SDS011;64751;48.708;9.710;2023-02-12T11:08:02;1.42;;;1.25;;
76051;SDS011;64751;48.708;9.710;2023-02-12T11:10:37;1.80;;;1.30;;
76051;SDS011;64751;48.708;9.710;2023-02-12T11:13:16;2.22;;;1.50;;
76051;SDS011;64751;48.708;9.710;2023-02-12T11:15:51;2.20;;;1.40;;
76051;SDS011;64751;48.708;9.710;2023-02-12T11:18:20;1.60;;;1.15;;
76051;SDS011;64751;48.708;9.710;2023-02-12T11:20:51;1.80;;;1.42;;
76051;SDS011;64751;48.708;9.710;2023-02-12T11:23:24;2.92;;;1.40;;
76051;SDS011;64751;48.708;9.710;2023-02-12T11:25:55;1.48;;;1.30;;
76051;SDS011;64751;48.708;9.710;2023-02-12T11:28:25;2.35;;;1.50;;
76051;SDS011;64751;48.708;9.710;2023-02-12T11:30:55;2.30;;;1.48;;
76051;SDS011;64751;48.708;9.710;2023-02-12T11:33:29;1.85;;;1.50;;
76051;SDS011;64751;48.708;9.710;2023-02-12T11:36:00;1.90;;;1.40;;
76051;SDS011;64751;48.708;9.710;2023-02-12T11:38:32;1.73;;;1.20;;
76051;SDS011;64751;48.708;9.710;2023-02-12T11:41:03;1.60;;;1.33;;
76051;SDS011;64751;48.708;9.710;2023-02-12T11:43:35;2.25;;;1.40;;
76051;SDS011;64751;48.708;9.710;2023-02-12T11:46:06;1.90;;;1.52;;
76051;SDS011;64751;48.708;9.710;2023-02-12T11:48:36;2.28;;;1.63;;
76051;SDS011;64751;48.708;9.710;2023-02-12T11:51:07;2.00;;;1.55;;
76051;SDS011;64751;48.708;9.710;2023-02-12T11:53:46;1.90;;;1.48;;
76051;SDS011;64751;48.708;9.710;2023-02-12T11:56:16;2.38;;;1.63;;
76051;SDS011;64751;48.708;9.710;2023-02-12T11:58:44;1.80;;;1.30;;
76051;SDS011;64751;48.708;9.710;2023-02-12T12:01:15;1.70;;;1.40;;
76051;SDS011;64751;48.708;9.710;2023-02-12T12:03:49;1.95;;;1.52;;
76051;SDS011;64751;48.708;9.710;2023-02-12T12:06:24;1.70;;;1.20;;
76051;SDS011;64751;48.708;9.710;2023-02-12T12:08:56;1.85;;;1.42;;
76051;SDS011;64751;48.708;9.710;2023-02-12T12:11:32;1.60;;;1.45;;
76051;SDS011;64751;48.708;9.710;2023-02-12T12:14:06;1.48;;;1.15;;
76051;SDS011;64751;48.708;9.710;2023-02-12T12:16:43;1.85;;;1.40;;
76051;SDS011;64751;48.708;9.710;2023-02-12T12:19:36;1.30;;;1.08;;
76051;SDS011;64751;48.708;9.710;2023-02-12T12:22:22;1.13;;;0.95;;
76051;SDS011;64751;48.708;9.710;2023-02-12T12:24:59;1.45;;;1.05;;
76051;SDS011;64751;48.708;9.710;2023-02-12T12:27:35;1.08;;;0.90;;
76051;SDS011;64751;48.708;9.710;2023-02-12T12:30:27;1.13;;;1.00;;
76051;SDS011;64751;48.708;9.710;2023-02-12T12:33:08;1.25;;;0.80;;
76051;SDS011;64751;48.708;9.710;2023-02-12T12:35:43;1.33;;;1.00;;
76051;SDS011;64751;48.708;9.710;2023-02-12T12:38:22;1.17;;;1.02;;
76051;SDS011;64751;48.708;9.710;2023-02-12T12:41:01;1.38;;;0.88;;
76051;SDS011;64751;48.708;9.710;2023-02-12T12:43:44;1.45;;;1.13;;
76051;SDS011;64751;48.708;9.710;2023-02-12T12:46:33;1.33;;;1.00;;
76051;SDS011;64751;48.708;9.710;2023-02-12T12:49:20;1.48;;;1.10;;
76051;SDS011;64751;48.708;9.710;2023-02-12T12:52:11;1.25;;;1.10;;
76051;SDS011;64751;48.708;9.710;2023-02-12T12:55:00;1.00;;;0.82;;
76051;SDS011;64751;48.708;9.710;2023-02-12T12:57:42;1.15;;;0.90;;
76051;SDS011;64751;48.708;9.710;2023-02-12T13:00:31;0.85;;;0.85;;
76051;SDS011;64751;48.708;9.710;2023-02-12T13:06:32;1.02;;;0.88;;
76051;SDS011;64751;48.708;9.710;2023-02-12T13:09:25;1.15;;;0.80;;
76051;SDS011;64751;48.708;9.710;2023-02-12T13:12:09;1.20;;;0.80;;
76051;SDS011;64751;48.708;9.710;2023-02-12T13:14:50;1.40;;;0.90;;
76051;SDS011;64751;48.708;9.710;2023-02-12T13:17:26;0.88;;;0.82;;
76051;SDS011;64751;48.708;9.710;2023-02-12T13:19:59;1.02;;;0.93;;
76051;SDS011;64751;48.708;9.710;2023-02-12T13:22:36;1.35;;;1.00;;
76051;SDS011;64751;48.708;9.710;2023-02-12T13:25:17;1.17;;;0.95;;
76051;SDS011;64751;48.708;9.710;2023-02-12T13:30:19;1.40;;;1.02;;
76051;SDS011;64751;48.708;9.710;2023-02-12T13:32:53;1.83;;;1.30;;
76051;SDS011;64751;48.708;9.710;2023-02-12T13:35:27;1.33;;;1.23;;
76051;SDS011;64751;48.708;9.710;2023-02-12T13:37:59;1.23;;;1.02;;
76051;SDS011;64751;48.708;9.710;2023-02-12T13:40:29;1.02;;;0.95;;
76051;SDS011;64751;48.708;9.710;2023-02-12T13:42:58;1.30;;;1.00;;
76051;SDS011;64751;48.708;9.710;2023-02-12T13:45:35;1.00;;;0.90;;
76051;SDS011;64751;48.708;9.710;2023-02-12T13:48:18;1.42;;;1.10;;
76051;SDS011;64751;48.708;9.710;2023-02-12T13:51:03;1.50;;;0.90;;
76051;SDS011;64751;48.708;9.710;2023-02-12T13:53:45;1.40;;;1.10;;
76051;SDS011;64751;48.708;9.710;2023-02-12T13:56:30;1.10;;;1.00;;
76051;SDS011;64751;48.708;9.710;2023-02-12T13:59:12;1.58;;;1.20;;
76051;SDS011;64751;48.708;9.710;2023-02-12T14:02:25;1.60;;;1.13;;
76051;SDS011;64751;48.708;9.710;2023-02-12T14:08:20;2.08;;;1.30;;
76051;SDS011;64751;48.708;9.710;2023-02-12T14:11:05;1.70;;;1.20;;
76051;SDS011;64751;48.708;9.710;2023-02-12T14:13:35;1.45;;;1.23;;
76051;SDS011;64751;48.708;9.710;2023-02-12T14:16:23;1.73;;;1.35;;
76051;SDS011;64751;48.708;9.710;2023-02-12T14:25:35;1.92;;;1.40;;
76051;SDS011;64751;48.708;9.710;2023-02-12T14:28:11;2.03;;;1.58;;
76051;SDS011;64751;48.708;9.710;2023-02-12T14:37:13;1.50;;;1.10;;
76051;SDS011;64751;48.708;9.710;2023-02-12T14:39:45;1.65;;;1.30;;
76051;SDS011;64751;48.708;9.710;2023-02-12T14:47:58;1.92;;;1.35;;
76051;SDS011;64751;48.708;9.710;2023-02-12T14:50:34;2.20;;;1.50;;
76051;SDS011;64751;48.708;9.710;2023-02-12T14:53:11;2.00;;;1.33;;
76051;SDS011;64751;48.708;9.710;2023-02-12T14:55:50;1.70;;;1.30;;
76051;SDS011;64751;48.708;9.710;2023-02-12T14:58:19;1.77;;;1.50;;
76051;SDS011;64751;48.708;9.710;2023-02-12T15:00:52;1.90;;;1.38;;
76051;SDS011;64751;48.708;9.710;2023-02-12T15:05:54;1.73;;;1.42;;
76051;SDS011;64751;48.708;9.710;2023-02-12T15:08:28;2.38;;;1.98;;
76051;SDS011;64751;48.708;9.710;2023-02-12T15:11:11;2.42;;;1.73;;
76051;SDS011;64751;48.708;9.710;2023-02-12T15:13:47;2.40;;;1.80;;
76051;SDS011;64751;48.708;9.710;2023-02-12T15:16:26;2.08;;;1.42;;
76051;SDS011;64751;48.708;9.710;2023-02-12T15:19:03;2.08;;;1.52;;
76051;SDS011;64751;48.708;9.710;2023-02-12T15:21:38;2.63;;;1.77;;
76051;SDS011;64751;48.708;9.710;2023-02-12T15:24:08;2.05;;;1.73;;
76051;SDS011;64751;48.708;9.710;2023-02-12T15:26:38;2.50;;;1.75;;
76051;SDS011;64751;48.708;9.710;2023-02-12T15:29:14;2.28;;;1.77;;
76051;SDS011;64751;48.708;9.710;2023-02-12T15:34:18;2.78;;;2.00;;
76051;SDS011;64751;48.708;9.710;2023-02-12T15:36:48;2.58;;;2.00;;
76051;SDS011;64751;48.708;9.710;2023-02-12T15:39:17;2.75;;;1.83;;
76051;SDS011;64751;48.708;9.710;2023-02-12T15:41:47;2.80;;;2.35;;
76051;SDS011;64751;48.708;9.710;2023-02-12T15:44:20;2.88;;;2.13;;
76051;SDS011;64751;48.708;9.710;2023-02-12T15:46:57;2.67;;;2.10;;
76051;SDS011;64751;48.708;9.710;2023-02-12T15:49:29;2.53;;;2.10;;
76051;SDS011;64751;48.708;9.710;2023-02-12T15:51:59;2.53;;;1.98;;
76051;SDS011;64751;48.708;9.710;2023-02-12T15:54:29;2.90;;;2.17;;
76051;SDS011;64751;48.708;9.710;2023-02-12T15:56:58;3.08;;;2.05;;
76051;SDS011;64751;48.708;9.710;2023-02-12T15:59:26;2.92;;;2.22;;
76051;SDS011;64751;48.708;9.710;2023-02-12T16:01:57;2.83;;;2.10;;
76051;SDS011;64751;48.708;9.710;2023-02-12T16:04:27;3.15;;;2.38;;
76051;SDS011;64751;48.708;9.710;2023-02-12T16:06:58;2.60;;;2.10;;
76051;SDS011;64751;48.708;9.710;2023-02-12T16:09:27;2.75;;;2.25;;
76051;SDS011;64751;48.708;9.710;2023-02-12T16:11:58;2.55;;;2.08;;
76051;SDS011;64751;48.708;9.710;2023-02-12T16:14:28;2.92;;;2.28;;
76051;SDS011;64751;48.708;9.710;2023-02-12T16:17:16;3.40;;;2.25;;
76051;SDS011;64751;48.708;9.710;2023-02-12T16:19:54;2.85;;;2.15;;
76051;SDS011;64751;48.708;9.710;2023-02-12T16:22:25;3.15;;;2.25;;
76051;SDS011;64751;48.708;9.710;2023-02-12T16:24:55;2.95;;;2.40;;
76051;SDS011;64751;48.708;9.710;2023-02-12T16:27:24;3.10;;;2.10;;
76051;SDS011;64751;48.708;9.710;2023-02-12T16:32:27;3.08;;;2.17;;
76051;SDS011;64751;48.708;9.710;2023-02-12T16:35:05;2.97;;;2.40;;
76051;SDS011;64751;48.708;9.710;2023-02-12T16:37:49;2.60;;;2.10;;
76051;SDS011;64751;48.708;9.710;2023-02-12T16:42:55;2.67;;;2.28;;
76051;SDS011;64751;48.708;9.710;2023-02-12T16:45:37;3.17;;;2.58;;
76051;SDS011;64751;48.708;9.710;2023-02-12T16:48:15;3.13;;;2.75;;
76051;SDS011;64751;48.708;9.710;2023-02-12T16:50:52;3.60;;;3.00;;
76051;SDS011;64751;48.708;9.710;2023-02-12T16:53:32;3.30;;;2.75;;
76051;SDS011;64751;48.708;9.710;2023-02-12T16:56:03;3.10;;;2.55;;
76051;SDS011;64751;48.708;9.710;2023-02-12T16:58:31;3.00;;;2.45;;
76051;SDS011;64751;48.708;9.710;2023-02-12T17:01:01;2.70;;;2.00;;
76051;SDS011;64751;48.708;9.710;2023-02-12T17:03:32;2.35;;;1.98;;
76051;SDS011;64751;48.708;9.710;2023-02-12T17:06:01;2.30;;;1.80;;
76051;SDS011;64751;48.708;9.710;2023-02-12T17:08:28;2.72;;;2.00;;
76051;SDS011;64751;48.708;9.710;2023-02-12T17:10:56;2.40;;;1.90;;
76051;SDS011;64751;48.708;9.710;2023-02-12T17:13:24;1.92;;;1.67;;
76051;SDS011;64751;48.708;9.710;2023-02-12T17:15:52;2.38;;;1.98;;
76051;SDS011;64751;48.708;9.710;2023-02-12T17:18:21;2.00;;;1.70;;